createdAt,value
2018-02-17T03:24:55.795Z,2.12
2018-02-17T03:25:55.854Z,2.10
2018-02-17T03:26:55.730Z,2.02
2018-02-17T03:27:55.714Z,1.85
2018-02-17T03:28:55.698Z,1.87
2018-02-17T03:29:55.725Z,1.76
2018-02-17T03:30:55.784Z,1.90
2018-02-17T03:31:55.655Z,1.64
2018-02-17T03:32:55.645Z,1.68
2018-02-17T03:33:55.628Z,1.58
2018-02-17T03:34:55.617Z,1.69
2018-02-17T03:35:55.611Z,1.71
2018-02-17T03:36:55.598Z,1.64
2018-02-17T03:37:55.583Z,1.61
2018-02-17T03:38:55.570Z,1.68
2018-02-17T03:39:55.561Z,1.65
2018-02-17T03:40:55.551Z,1.50
2018-02-17T03:41:55.533Z,1.54
2018-02-17T03:42:55.521Z,1.57
2018-02-17T03:43:55.512Z,1.71
2018-02-17T03:44:55.497Z,1.61
2018-02-17T03:45:55.486Z,1.65
2018-02-17T03:46:55.471Z,1.64
2018-02-17T03:47:55.468Z,1.62
2018-02-17T03:48:55.451Z,1.69
2018-02-17T03:49:55.437Z,1.73
2018-02-17T03:50:55.432Z,1.64
2018-02-17T03:51:55.424Z,1.65
2018-02-17T03:52:55.404Z,1.73
2018-02-17T03:53:55.425Z,1.69
2018-02-17T03:54:55.385Z,1.65
2018-02-17T03:55:55.461Z,1.72
2018-02-17T03:56:55.358Z,1.62
2018-02-17T03:57:55.347Z,1.60
2018-02-17T03:58:55.335Z,1.60
2018-02-17T03:59:55.330Z,1.68
2018-02-17T04:00:55.317Z,1.73
2018-02-17T04:01:55.318Z,1.80
2018-02-17T04:02:55.296Z,1.68
2018-02-17T04:03:55.292Z,1.62
2018-02-17T04:04:55.284Z,1.65
2018-02-17T04:05:55.259Z,1.69
2018-02-17T04:06:55.268Z,1.65
2018-02-17T04:07:55.236Z,1.69
2018-02-17T04:08:55.229Z,1.57
2018-02-17T04:09:55.241Z,1.57
2018-02-17T04:10:55.230Z,1.60
2018-02-17T04:11:55.191Z,1.69
2018-02-17T04:12:55.184Z,1.71
2018-02-17T04:13:55.213Z,1.61
2018-02-17T04:14:55.168Z,1.65
2018-02-17T04:15:55.144Z,1.75
2018-02-17T04:18:16.212Z,1.71
2018-02-17T04:19:16.154Z,1.73
2018-02-17T04:20:16.148Z,1.64
2018-02-17T04:21:16.120Z,1.76
2018-02-17T04:22:16.145Z,1.72
2018-02-17T04:23:16.190Z,1.68
2018-02-17T04:24:16.106Z,1.64
2018-02-17T04:25:16.072Z,1.62
2018-02-17T04:26:16.061Z,1.57
2018-02-17T04:27:16.046Z,1.64
2018-02-17T04:28:16.040Z,1.65
2018-02-17T04:29:16.024Z,1.64
2018-02-17T04:30:16.015Z,1.62
2018-02-17T04:31:16.004Z,1.62
2018-02-17T04:32:15.997Z,1.47
2018-02-17T04:33:15.983Z,1.60
2018-02-17T04:34:15.978Z,1.55
2018-02-17T04:35:15.970Z,1.64
2018-02-17T04:36:15.960Z,1.61
2018-02-17T04:37:15.937Z,1.46
2018-02-17T04:38:15.933Z,1.60
2018-02-17T04:39:15.970Z,1.51
2018-02-17T04:40:15.911Z,1.46
2018-02-17T04:41:15.898Z,1.68
2018-02-17T04:42:15.888Z,1.68
2018-02-17T04:43:15.878Z,1.68
2018-02-17T04:44:15.890Z,1.72
2018-02-17T04:45:15.853Z,1.68
2018-02-17T04:46:15.841Z,1.75
2018-02-17T04:47:15.834Z,1.76
2018-02-17T04:48:15.816Z,1.87
2018-02-17T04:49:15.810Z,1.85
2018-02-17T04:50:15.804Z,1.87
2018-02-17T04:51:15.787Z,2.01
2018-02-17T04:52:15.786Z,2.15
2018-02-17T04:53:15.777Z,2.12
2018-02-17T04:54:15.757Z,2.17
2018-02-17T04:55:15.758Z,2.01
2018-02-17T04:56:15.733Z,1.97
2018-02-17T04:57:15.724Z,1.99
2018-02-17T04:58:15.725Z,1.97
2018-02-17T04:59:15.729Z,1.99
2018-02-17T05:00:15.689Z,1.94
2018-02-17T05:01:15.690Z,1.85
2018-02-17T05:02:15.668Z,1.87
2018-02-17T05:03:15.667Z,1.87
2018-02-17T05:04:15.665Z,1.99
2018-02-17T05:05:15.642Z,1.87
2018-02-17T05:06:15.623Z,1.82
2018-02-17T05:07:15.631Z,1.78
2018-02-17T05:08:15.610Z,1.89
2018-02-17T05:09:15.621Z,1.98
2018-02-17T05:10:15.588Z,1.90
2018-02-17T05:11:15.616Z,1.79
2018-02-17T05:12:15.560Z,1.97
2018-02-17T05:13:15.545Z,1.87
2018-02-17T05:14:15.543Z,1.87
2018-02-17T05:15:15.523Z,1.87
2018-02-17T05:16:15.511Z,1.83
2018-02-17T05:17:15.517Z,1.91
2018-02-17T05:18:15.492Z,1.83
2018-02-17T05:19:15.481Z,1.87
2018-02-17T05:20:15.477Z,1.82
2018-02-17T05:21:15.465Z,1.82
2018-02-17T05:22:15.446Z,1.83
2018-02-17T05:23:15.433Z,1.76
2018-02-17T05:24:15.419Z,1.89
2018-02-17T05:25:15.410Z,1.83
2018-02-17T05:26:15.417Z,1.98
2018-02-17T05:27:15.418Z,1.98
2018-02-17T05:28:15.384Z,1.97
2018-02-17T05:29:15.400Z,2.06
2018-02-17T05:30:15.357Z,1.91
2018-02-17T05:31:15.344Z,2.01
2018-02-17T05:32:15.355Z,2.01
2018-02-17T05:33:15.326Z,2.02
2018-02-17T05:34:15.324Z,2.04
2018-02-17T05:35:15.305Z,2.12
2018-02-17T05:36:15.286Z,1.99
2018-02-17T05:37:15.273Z,2.04
2018-02-17T05:38:15.315Z,2.02
2018-02-17T05:39:15.252Z,2.13
2018-02-17T05:40:15.236Z,2.15
2018-02-17T05:41:15.225Z,2.12
2018-02-17T05:42:15.220Z,2.20
2018-02-17T05:43:15.257Z,2.15
2018-02-17T05:44:15.237Z,2.12
2018-02-17T05:45:15.237Z,2.22
2018-02-17T05:46:15.184Z,2.27
2018-02-17T05:47:15.166Z,2.16
2018-02-17T05:48:15.149Z,2.16
2018-02-17T05:49:15.142Z,2.17
2018-02-17T05:50:15.123Z,2.20
2018-02-17T05:51:15.116Z,2.17
2018-02-17T05:52:15.102Z,2.15
2018-02-17T05:53:15.090Z,2.22
2018-02-17T05:54:15.085Z,2.26
2018-02-17T05:55:15.067Z,2.09
2018-02-17T05:57:36.105Z,2.17
2018-02-17T05:58:36.079Z,2.12
2018-02-17T05:59:36.119Z,2.19
2018-02-17T06:00:36.070Z,2.13
2018-02-17T06:01:36.044Z,2.13
2018-02-17T06:02:36.017Z,1.99
2018-02-17T06:03:36.025Z,2.01
2018-02-17T06:04:36.057Z,2.01
2018-02-17T06:05:35.983Z,2.12
2018-02-17T06:06:35.968Z,2.04
2018-02-17T06:07:35.965Z,2.06
2018-02-17T06:08:35.962Z,2.01
2018-02-17T06:09:35.945Z,2.02
2018-02-17T06:10:35.962Z,2.02
2018-02-17T06:11:35.918Z,1.99
2018-02-17T06:12:35.911Z,1.93
2018-02-17T06:13:35.939Z,1.98
2018-02-17T06:14:35.888Z,2.09
2018-02-17T06:15:35.871Z,2.01
2018-02-17T06:16:35.863Z,1.83
2018-02-17T06:17:35.852Z,2.01
2018-02-17T06:18:35.867Z,2.04
2018-02-17T06:19:35.858Z,2.02
2018-02-17T06:20:35.830Z,2.08
2018-02-17T06:21:35.816Z,2.10
2018-02-17T06:22:35.803Z,1.99
2018-02-17T06:23:35.784Z,2.02
2018-02-17T06:24:35.782Z,1.98
2018-02-17T06:25:35.759Z,2.08
2018-02-17T06:26:35.747Z,1.98
2018-02-17T06:27:35.743Z,2.08
2018-02-17T06:28:35.752Z,1.98
2018-02-17T06:29:35.721Z,2.09
2018-02-17T06:30:35.708Z,2.01
2018-02-17T06:31:35.702Z,1.97
2018-02-17T06:32:35.685Z,2.02
2018-02-17T06:33:35.665Z,2.09
2018-02-17T06:34:35.656Z,2.12
2018-02-17T06:35:35.648Z,2.20
2018-02-17T06:36:35.636Z,2.15
2018-02-17T06:37:35.629Z,2.09
2018-02-17T06:38:35.610Z,2.15
2018-02-17T06:39:35.613Z,2.08
2018-02-17T06:40:35.588Z,2.13
2018-02-17T06:41:35.598Z,2.10
2018-02-17T06:42:44.443Z,2.10
2018-02-17T06:44:28.983Z,2.16
2018-02-17T06:45:28.933Z,2.15
2018-02-17T06:46:28.923Z,2.10
2018-02-17T06:47:28.900Z,2.13
2018-02-17T06:48:28.925Z,2.10
2018-02-17T06:49:28.901Z,2.13
2018-02-17T06:50:28.894Z,2.13
2018-02-17T06:51:28.863Z,2.16
2018-02-17T06:52:28.847Z,2.19
2018-02-17T06:53:28.848Z,2.13
2018-02-17T06:54:28.827Z,2.22
2018-02-17T06:55:28.812Z,2.15
2018-02-17T06:56:28.871Z,2.26
2018-02-17T06:57:28.792Z,2.16
2018-02-17T06:58:28.797Z,2.20
2018-02-17T06:59:28.800Z,2.19
2018-02-17T07:00:28.764Z,2.27
2018-02-17T07:01:28.745Z,2.17
2018-02-17T07:02:28.767Z,2.17
2018-02-17T07:03:28.730Z,2.12
2018-02-17T07:04:28.741Z,2.13
2018-02-17T07:05:28.725Z,2.26
2018-02-17T07:06:28.695Z,2.30
2018-02-17T07:07:28.681Z,2.38
2018-02-17T07:08:28.711Z,2.30
2018-02-17T07:09:28.657Z,2.22
2018-02-17T07:10:28.653Z,2.27
2018-02-17T07:11:28.663Z,2.30
2018-02-17T07:12:28.631Z,2.26
2018-02-17T07:13:28.616Z,2.40
2018-02-17T07:14:28.610Z,2.26
2018-02-17T07:15:28.614Z,2.34
2018-02-17T07:16:28.587Z,2.23
2018-02-17T07:17:29.425Z,2.22
2018-02-17T07:18:28.567Z,2.38
2018-02-17T07:19:29.176Z,2.27
2018-02-17T07:20:29.537Z,2.31
2018-02-17T07:21:28.526Z,2.28
2018-02-17T07:22:28.527Z,2.40
2018-02-17T07:23:28.815Z,2.48
2018-02-17T07:24:28.503Z,2.41
2018-02-17T07:25:28.491Z,2.41
2018-02-17T07:26:28.481Z,2.38
2018-02-17T07:27:28.491Z,2.51
2018-02-17T07:28:28.454Z,2.44
2018-02-17T07:29:28.442Z,2.49
2018-02-17T07:30:28.440Z,2.41
2018-02-17T07:31:28.420Z,2.40
2018-02-17T07:32:28.407Z,2.45
2018-02-17T07:33:28.398Z,2.40
2018-02-17T07:34:28.389Z,2.45
2018-02-17T07:35:28.388Z,2.45
2018-02-17T07:36:28.369Z,2.41
2018-02-17T07:37:30.089Z,2.38
2018-02-17T07:38:28.346Z,2.38
2018-02-17T07:39:28.350Z,2.38
2018-02-17T07:40:28.323Z,2.46
2018-02-17T07:41:28.332Z,2.38
2018-02-17T07:42:28.304Z,2.44
2018-02-17T07:43:28.296Z,2.48
2018-02-17T07:44:29.480Z,2.51
2018-02-17T07:45:29.649Z,2.44
2018-02-17T07:46:28.265Z,2.48
2018-02-17T07:47:28.263Z,2.55
2018-02-17T07:48:28.240Z,2.45
2018-02-17T07:49:28.263Z,2.45
2018-02-17T07:50:28.220Z,2.45
2018-02-17T07:51:28.278Z,2.48
2018-02-17T07:52:28.208Z,2.48
2018-02-17T07:53:28.189Z,2.45
2018-02-17T07:54:28.178Z,2.46
2018-02-17T07:55:37.893Z,2.49
2018-02-17T07:57:22.114Z,2.49
2018-02-17T07:58:22.091Z,2.51
2018-02-17T07:59:22.854Z,2.46
2018-02-17T08:00:22.037Z,2.56
2018-02-17T08:01:22.073Z,2.46
2018-02-17T08:02:22.003Z,2.51
2018-02-17T08:03:21.994Z,2.48
2018-02-17T08:04:21.982Z,2.37
2018-02-17T08:05:21.971Z,2.45
2018-02-17T08:06:22.617Z,2.41
2018-02-17T08:07:22.000Z,2.48
2018-02-17T08:08:21.942Z,2.53
2018-02-17T08:09:22.073Z,2.53
2018-02-17T08:10:21.917Z,2.45
2018-02-17T08:11:21.912Z,2.44
2018-02-17T08:12:21.902Z,2.44
2018-02-17T08:13:21.914Z,2.41
2018-02-17T08:14:21.917Z,2.51
2018-02-17T08:15:23.208Z,2.56
2018-02-17T08:16:22.861Z,2.55
2018-02-17T08:17:23.790Z,2.45
2018-02-17T08:18:21.834Z,2.58
2018-02-17T08:19:21.821Z,2.59
2018-02-17T08:20:21.814Z,2.55
2018-02-17T08:21:21.872Z,2.56
2018-02-17T08:22:21.922Z,2.66
2018-02-17T08:23:21.777Z,2.61
2018-02-17T08:24:21.773Z,2.71
2018-02-17T08:25:21.772Z,2.66
2018-02-17T08:26:21.747Z,2.64
2018-02-17T08:27:22.550Z,2.73
2018-02-17T08:28:21.728Z,2.69
2018-02-17T08:29:21.741Z,2.70
2018-02-17T08:30:21.818Z,2.61
2018-02-17T08:31:21.707Z,2.71
2018-02-17T08:32:21.683Z,2.71
2018-02-17T08:33:21.677Z,2.66
2018-02-17T08:34:23.052Z,2.66
2018-02-17T08:35:21.651Z,2.66
2018-02-17T08:36:21.642Z,2.71
2018-02-17T08:37:21.636Z,2.71
2018-02-17T08:38:21.618Z,2.67
2018-02-17T08:39:21.667Z,2.59
2018-02-17T08:40:22.959Z,2.69
2018-02-17T08:41:21.589Z,2.76
2018-02-17T08:42:21.577Z,2.73
2018-02-17T08:43:22.382Z,2.76
2018-02-17T08:44:21.562Z,2.76
2018-02-17T08:45:21.552Z,2.77
2018-02-17T08:46:21.533Z,2.87
2018-02-17T08:47:21.527Z,2.76
2018-02-17T08:48:22.167Z,2.89
2018-02-17T08:49:21.544Z,2.91
2018-02-17T08:50:21.493Z,2.81
2018-02-17T08:51:21.485Z,2.88
2018-02-17T08:52:21.473Z,2.82
2018-02-17T08:53:21.635Z,2.74
2018-02-17T08:55:44.128Z,2.79
2018-02-17T08:56:42.795Z,2.84
2018-02-17T08:57:42.809Z,2.79
2018-02-17T08:58:43.923Z,2.85
2018-02-17T08:59:44.320Z,2.91
2018-02-17T09:00:43.751Z,2.84
2018-02-17T09:03:07.342Z,2.77
2018-02-17T09:04:05.701Z,2.94
2018-02-17T09:05:06.618Z,2.91
2018-02-17T09:06:05.604Z,2.91
2018-02-17T09:07:05.579Z,2.94
2018-02-17T09:10:00.059Z,2.97
2018-02-17T09:10:59.582Z,2.91
2018-02-17T09:11:59.676Z,2.87
2018-02-17T09:13:00.303Z,2.94
2018-02-17T09:13:59.561Z,2.88
2018-02-17T09:15:00.626Z,2.91
2018-02-17T09:15:59.515Z,2.89
2018-02-17T09:16:59.546Z,2.88
2018-02-17T09:17:59.531Z,2.84
2018-02-17T09:19:01.117Z,2.89
2018-02-17T09:19:59.492Z,2.88
2018-02-17T09:21:02.975Z,2.95
2018-02-17T09:22:00.320Z,2.98
2018-02-17T09:22:59.453Z,2.92
2018-02-17T09:23:59.980Z,2.87
2018-02-17T09:24:59.492Z,2.81
2018-02-17T09:25:59.436Z,2.79
2018-02-17T09:26:59.424Z,2.88
2018-02-17T09:27:59.704Z,2.91
2018-02-17T09:28:59.415Z,3.03
2018-02-17T09:30:02.260Z,2.89
2018-02-17T09:30:59.425Z,2.94
2018-02-17T09:31:59.352Z,2.91
2018-02-17T09:32:59.425Z,2.89
2018-02-17T09:33:59.337Z,2.94
2018-02-17T09:34:59.557Z,2.82
2018-02-17T09:35:59.314Z,2.88
2018-02-17T09:36:59.312Z,2.84
2018-02-17T09:37:59.289Z,2.92
2018-02-17T09:38:59.274Z,2.95
2018-02-17T09:39:59.305Z,3.06
2018-02-17T09:40:59.307Z,3.06
2018-02-17T09:41:59.471Z,3.07
2018-02-17T09:42:59.232Z,3.02
2018-02-17T09:43:59.384Z,3.13
2018-02-17T09:44:59.244Z,3.00
2018-02-17T09:45:59.214Z,3.07
2018-02-17T09:46:59.231Z,3.07
2018-02-17T09:47:59.249Z,3.06
2018-02-17T09:48:59.207Z,3.10
2018-02-17T09:49:59.156Z,3.09
2018-02-17T09:51:00.095Z,3.03
2018-02-17T09:51:59.303Z,3.13
2018-02-17T09:52:59.253Z,3.20
2018-02-17T09:53:59.170Z,3.20
2018-02-17T09:54:59.177Z,3.18
2018-02-17T09:55:59.144Z,3.25
2018-02-17T09:56:59.086Z,3.28
2018-02-17T09:57:59.109Z,3.25
2018-02-17T09:58:59.059Z,3.33
2018-02-17T09:59:59.866Z,3.27
2018-02-17T10:00:59.090Z,3.31
2018-02-17T10:01:59.078Z,3.24
2018-02-17T10:03:00.917Z,3.34
2018-02-17T10:04:00.208Z,3.27
2018-02-17T10:04:59.042Z,3.25
2018-02-17T10:05:59.028Z,3.34
2018-02-17T10:06:59.000Z,3.28
2018-02-17T10:07:58.989Z,3.20
2018-02-17T10:08:59.585Z,3.30
2018-02-17T10:09:58.946Z,3.23
2018-02-17T10:10:58.958Z,3.27
2018-02-17T10:11:58.953Z,3.21
2018-02-17T10:12:58.920Z,3.28
2018-02-17T10:14:01.476Z,3.31
2018-02-17T10:14:59.730Z,3.28
2018-02-17T10:15:58.913Z,3.16
2018-02-17T10:16:58.870Z,3.20
2018-02-17T10:17:58.909Z,3.25
2018-02-17T10:18:58.865Z,3.16
2018-02-17T10:19:58.863Z,3.10
2018-02-17T10:20:58.840Z,3.10
2018-02-17T10:21:58.926Z,3.13
2018-02-17T10:22:58.831Z,3.07
2018-02-17T10:24:01.817Z,3.03
2018-02-17T10:24:58.828Z,3.02
2018-02-17T10:25:58.782Z,3.03
2018-02-17T10:26:59.902Z,2.95
2018-02-17T10:27:58.800Z,2.91
2018-02-17T10:28:58.747Z,2.84
2018-02-17T10:29:58.817Z,2.87
2018-02-17T10:30:58.737Z,2.79
2018-02-17T10:31:58.720Z,2.87
2018-02-17T10:32:58.753Z,2.79
2018-02-17T10:33:58.715Z,2.70
2018-02-17T10:34:58.685Z,2.73
2018-02-17T10:35:58.738Z,2.82
2018-02-17T10:36:58.674Z,2.77
2018-02-17T10:37:58.667Z,2.73
2018-02-17T10:38:58.680Z,2.64
2018-02-17T10:40:07.472Z,2.67
2018-02-17T10:42:02.405Z,2.71
2018-02-17T10:43:02.305Z,2.71
2018-02-17T10:44:46.462Z,2.67
2018-02-17T10:45:46.404Z,2.67
2018-02-17T10:46:46.383Z,2.66
2018-02-17T10:47:46.379Z,2.66
2018-02-17T10:48:46.463Z,2.44
2018-02-17T10:49:46.332Z,2.56
2018-02-17T10:50:46.334Z,2.41
2018-02-17T10:51:46.298Z,2.44
2018-02-17T10:52:46.295Z,2.46
2018-02-17T10:53:46.275Z,2.52
2018-02-17T10:54:46.266Z,2.49
2018-02-17T10:55:46.288Z,2.41
2018-02-17T10:56:46.246Z,2.41
2018-02-17T10:57:46.270Z,2.61
2018-02-17T10:58:46.224Z,2.49
2018-02-17T10:59:46.225Z,2.38
2018-02-17T11:00:46.199Z,2.40
2018-02-17T11:01:46.203Z,2.37
2018-02-17T11:02:46.181Z,2.45
2018-02-17T11:03:46.198Z,2.37
2018-02-17T11:04:46.156Z,2.53
2018-02-17T11:05:46.155Z,2.67
2018-02-17T11:06:46.151Z,2.74
2018-02-17T11:07:46.157Z,2.76
2018-02-17T11:08:46.108Z,2.76
2018-02-17T11:09:46.101Z,2.89
2018-02-17T11:10:46.096Z,2.89
2018-02-17T11:11:46.084Z,2.61
2018-02-17T11:12:46.070Z,2.82
2018-02-17T11:13:46.099Z,2.76
2018-02-17T11:14:46.052Z,2.76
2018-02-17T11:15:46.041Z,2.70
2018-02-17T11:16:46.036Z,2.64
2018-02-17T11:17:46.031Z,2.61
2018-02-17T11:18:46.021Z,2.66
2018-02-17T11:19:45.995Z,2.59
2018-02-17T11:20:45.986Z,2.52
2018-02-17T11:21:45.971Z,2.55
2018-02-17T11:22:45.990Z,2.56
2018-02-17T11:23:45.954Z,2.37
2018-02-17T11:24:45.935Z,2.55
2018-02-17T11:25:45.959Z,2.41
2018-02-17T11:26:45.949Z,2.63
2018-02-17T11:27:45.934Z,2.44
2018-02-17T11:28:45.925Z,2.45
2018-02-17T11:29:45.924Z,2.45
2018-02-17T11:30:45.875Z,2.35
2018-02-17T11:31:45.860Z,2.48
2018-02-17T11:32:45.877Z,2.45
2018-02-17T11:33:45.888Z,2.22
2018-02-17T11:34:45.874Z,2.31
2018-02-17T11:35:45.892Z,2.53
2018-02-17T11:36:45.805Z,2.41
2018-02-17T11:37:45.842Z,2.52
2018-02-17T11:38:45.837Z,2.44
2018-02-17T11:39:45.804Z,2.46
2018-02-17T11:40:45.784Z,2.56
2018-02-17T11:41:45.777Z,2.59
2018-02-17T11:42:45.740Z,2.44
2018-02-17T11:43:45.769Z,2.45
2018-02-17T11:44:45.723Z,2.49
2018-02-17T11:45:45.733Z,2.56
2018-02-17T11:46:45.719Z,2.52
2018-02-17T11:47:45.720Z,2.59
2018-02-17T11:48:45.756Z,2.45
2018-02-17T11:49:45.669Z,2.40
2018-02-17T11:50:45.684Z,2.45
2018-02-17T11:51:45.648Z,2.44
2018-02-17T11:52:45.635Z,2.48
2018-02-17T11:53:54.499Z,2.56
2018-02-17T11:55:39.099Z,2.58
2018-02-17T11:56:38.998Z,2.48
2018-02-17T11:57:38.965Z,2.40
2018-02-17T11:58:38.949Z,2.51
2018-02-17T11:59:38.949Z,2.70
2018-02-17T12:00:38.973Z,2.45
2018-02-17T12:01:38.924Z,2.40
2018-02-17T12:02:39.046Z,2.55
2018-02-17T12:03:38.893Z,2.56
2018-02-17T12:04:38.885Z,2.30
2018-02-17T12:05:48.759Z,2.37
2018-02-17T12:07:39.242Z,2.41
2018-02-17T12:08:31.785Z,2.34
2018-02-17T12:10:25.598Z,2.40
2018-02-17T12:11:25.219Z,2.23
2018-02-17T12:12:25.207Z,2.17
2018-02-17T12:13:25.353Z,2.19
2018-02-17T12:14:25.213Z,2.46
2018-02-17T12:15:25.141Z,2.28
2018-02-17T12:16:25.120Z,2.27
2018-02-17T12:17:25.087Z,2.34
2018-02-17T12:18:25.098Z,1.94
2018-02-17T12:19:25.074Z,1.99
2018-02-17T12:20:25.057Z,1.99
2018-02-17T12:21:25.047Z,1.99
2018-02-17T12:22:25.065Z,1.87
2018-02-17T12:23:25.063Z,1.60
2018-02-17T12:24:25.018Z,1.44
2018-02-17T12:25:25.004Z,1.50
2018-02-17T12:26:24.991Z,1.51
2018-02-17T12:27:24.982Z,1.61
2018-02-17T12:28:25.031Z,1.61
2018-02-17T12:29:24.962Z,1.51
2018-02-17T12:30:24.953Z,1.55
2018-02-17T12:31:24.938Z,1.64
2018-02-17T12:32:24.939Z,1.50
2018-02-17T12:33:24.921Z,1.44
2018-02-17T12:34:24.915Z,1.55
2018-02-17T12:35:24.894Z,1.47
2018-02-17T12:36:24.884Z,1.60
2018-02-17T12:37:24.889Z,1.64
2018-02-17T12:38:24.871Z,1.75
2018-02-17T12:39:24.866Z,1.57
2018-02-17T12:40:24.844Z,1.58
2018-02-17T12:41:24.841Z,1.46
2018-02-17T12:42:24.818Z,1.55
2018-02-17T12:43:24.809Z,1.62
2018-02-17T12:44:24.802Z,1.55
2018-02-17T12:45:24.792Z,1.50
2018-02-17T12:46:24.774Z,1.61
2018-02-17T12:47:33.630Z,1.44
2018-02-17T12:49:18.223Z,1.51
2018-02-17T12:50:18.122Z,1.58
2018-02-17T12:51:18.140Z,1.54
2018-02-17T12:52:18.102Z,1.52
2018-02-17T12:53:18.110Z,1.52
2018-02-17T12:54:18.121Z,1.64
2018-02-17T12:55:18.110Z,1.57
2018-02-17T12:56:18.235Z,1.64
2018-02-17T12:57:18.045Z,1.76
2018-02-17T12:58:18.036Z,1.60
2018-02-17T12:59:18.037Z,1.64
2018-02-17T13:00:18.010Z,1.58
2018-02-17T13:01:18.012Z,1.64
2018-02-17T13:02:17.992Z,1.58
2018-02-17T13:03:17.986Z,1.57
2018-02-17T13:04:17.988Z,1.54
2018-02-17T13:05:17.965Z,1.62
2018-02-17T13:06:17.941Z,1.65
2018-02-17T13:07:17.941Z,1.62
2018-02-17T13:08:17.923Z,1.69
2018-02-17T13:09:17.930Z,1.64
2018-02-17T13:10:17.953Z,1.60
2018-02-17T13:11:17.896Z,1.54
2018-02-17T13:12:17.985Z,1.58
2018-02-17T13:13:17.880Z,1.47
2018-02-17T13:14:17.904Z,1.62
2018-02-17T13:15:17.892Z,1.52
2018-02-17T13:16:17.882Z,1.69
2018-02-17T13:17:17.827Z,1.64
2018-02-17T13:18:17.817Z,1.51
2018-02-17T13:19:17.846Z,1.55
2018-02-17T13:20:17.826Z,1.51
2018-02-17T13:21:17.786Z,1.57
2018-02-17T13:22:17.772Z,1.46
2018-02-17T13:23:17.766Z,1.52
2018-02-17T13:24:17.749Z,1.43
2018-02-17T13:25:17.743Z,1.50
2018-02-17T13:26:17.746Z,1.57
2018-02-17T13:27:17.721Z,1.68
2018-02-17T13:28:17.727Z,1.51
2018-02-17T13:29:17.724Z,1.62
2018-02-17T13:30:17.683Z,1.46
2018-02-17T13:31:17.682Z,1.68
2018-02-17T13:32:17.669Z,1.79
2018-02-17T13:33:17.659Z,1.76
2018-02-17T13:34:17.645Z,1.68
2018-02-17T13:35:17.630Z,1.64
2018-02-17T13:36:17.616Z,1.64
2018-02-17T13:37:17.603Z,1.69
2018-02-17T13:38:17.598Z,1.72
2018-02-17T13:39:17.605Z,1.69
2018-02-17T13:40:17.585Z,1.82
2018-02-17T13:41:17.578Z,1.60
2018-02-17T13:42:17.552Z,1.62
2018-02-17T13:43:17.548Z,1.72
2018-02-17T13:44:17.541Z,1.68
2018-02-17T13:45:17.529Z,1.64
2018-02-17T13:46:17.507Z,1.64
2018-02-17T13:47:17.496Z,1.42
2018-02-17T13:48:17.483Z,1.62
2018-02-17T13:49:17.474Z,1.69
2018-02-17T13:50:17.467Z,1.64
2018-02-17T13:51:17.460Z,1.60
2018-02-17T13:52:17.448Z,1.60
2018-02-17T13:53:17.432Z,1.58
2018-02-17T13:54:17.420Z,1.62
2018-02-17T13:55:17.407Z,1.72
2018-02-17T13:56:17.394Z,1.79
2018-02-17T13:57:17.390Z,1.60
2018-02-17T13:58:17.396Z,1.80
2018-02-17T13:59:17.408Z,1.76
2018-02-17T14:00:26.273Z,1.64
2018-02-17T14:02:10.768Z,1.76
2018-02-17T14:03:10.744Z,1.89
2018-02-17T14:04:10.725Z,1.80
2018-02-17T14:05:10.725Z,1.89
2018-02-17T14:06:10.770Z,1.98
2018-02-17T14:07:10.834Z,2.06
2018-02-17T14:08:10.702Z,2.13
2018-02-17T14:09:10.661Z,2.09
2018-02-17T14:10:10.675Z,2.06
2018-02-17T14:11:10.642Z,1.97
2018-02-17T14:12:10.626Z,1.91
2018-02-17T14:13:10.628Z,2.04
2018-02-17T14:14:10.606Z,1.94
2018-02-17T14:15:10.595Z,1.85
2018-02-17T14:16:10.618Z,1.82
2018-02-17T14:17:10.570Z,1.85
2018-02-17T14:20:14.469Z,1.90
2018-02-17T14:22:25.032Z,1.85
2018-02-17T14:23:24.984Z,1.91
2018-02-17T14:24:24.993Z,1.99
2018-02-17T14:25:24.962Z,1.87
2018-02-17T14:26:25.113Z,1.87
2018-02-17T14:27:25.063Z,1.85
2018-02-17T14:28:34.894Z,1.91
2018-02-17T14:30:18.340Z,1.85
2018-02-17T14:31:27.098Z,2.02
2018-02-17T14:33:20.888Z,2.02
2018-02-17T14:34:11.714Z,1.93
2018-02-17T14:35:11.675Z,1.97
2018-02-17T14:36:11.663Z,2.06
2018-02-17T14:37:11.774Z,1.89
2018-02-17T14:38:11.628Z,2.01
2018-02-17T14:39:11.604Z,1.98
2018-02-17T14:40:11.596Z,1.90
2018-02-17T14:41:11.586Z,1.89
2018-02-17T14:42:11.565Z,1.83
2018-02-17T14:43:11.583Z,1.85
2018-02-17T14:44:11.561Z,1.83
2018-02-17T14:45:11.545Z,1.80
2018-02-17T14:46:11.528Z,1.87
2018-02-17T14:47:11.511Z,1.83
2018-02-17T14:48:11.500Z,1.97
2018-02-17T14:49:11.556Z,1.98
2018-02-17T14:50:20.248Z,1.87
2018-02-17T14:52:04.938Z,1.83
2018-02-17T14:53:04.866Z,1.79
2018-02-17T14:54:04.847Z,1.75
2018-02-17T14:55:04.910Z,1.79
2018-02-17T14:56:13.145Z,1.73
2018-02-17T14:57:58.283Z,1.80
2018-02-17T14:58:58.177Z,1.75
2018-02-17T15:00:06.872Z,1.82
2018-02-17T15:01:51.585Z,1.76
2018-02-17T15:02:51.547Z,1.85
2018-02-17T15:03:51.552Z,1.91
2018-02-17T15:04:51.623Z,1.76
2018-02-17T15:05:51.556Z,1.97
2018-02-17T15:06:51.485Z,2.08
2018-02-17T15:07:51.530Z,2.06
2018-02-17T15:08:51.516Z,1.97
2018-02-17T15:10:01.093Z,1.99
2018-02-17T15:11:44.875Z,1.97
2018-02-17T15:12:53.551Z,2.01
2018-02-17T15:14:38.201Z,2.13
2018-02-17T15:15:38.205Z,2.13
2018-02-17T15:16:38.192Z,2.16
2018-02-17T15:17:38.179Z,2.15
2018-02-17T15:18:38.139Z,2.12
2018-02-17T15:19:38.182Z,2.22
2018-02-17T15:20:38.232Z,2.08
2018-02-17T15:21:38.115Z,2.08
2018-02-17T15:22:38.105Z,2.04
2018-02-17T15:23:38.110Z,2.12
2018-02-17T15:24:38.078Z,2.15
2018-02-17T15:25:38.110Z,2.15
2018-02-17T15:26:38.054Z,2.20
2018-02-17T15:27:38.046Z,2.20
2018-02-17T15:28:38.073Z,2.26
2018-02-17T15:29:38.057Z,2.27
2018-02-17T15:30:38.050Z,2.30
2018-02-17T15:31:38.029Z,2.38
2018-02-17T15:32:37.996Z,2.41
2018-02-17T15:33:38.024Z,2.41
2018-02-17T15:34:37.977Z,2.31
2018-02-17T15:35:38.000Z,2.26
2018-02-17T15:36:37.957Z,2.27
2018-02-17T15:37:37.952Z,2.38
2018-02-17T15:38:37.957Z,2.38
2018-02-17T15:39:37.921Z,2.26
2018-02-17T15:40:37.933Z,2.26
2018-02-17T15:41:37.895Z,2.23
2018-02-17T15:42:37.884Z,2.15
2018-02-17T15:43:37.884Z,2.15
2018-02-17T15:44:37.910Z,2.28
2018-02-17T15:45:37.854Z,2.31
2018-02-17T15:46:37.871Z,2.41
2018-02-17T15:47:37.833Z,2.35
2018-02-17T15:48:37.821Z,2.34
2018-02-17T15:49:37.839Z,2.40
2018-02-17T15:50:37.829Z,2.40
2018-02-17T15:51:37.793Z,2.34
2018-02-17T15:52:37.819Z,2.28
2018-02-17T15:53:37.808Z,2.40
2018-02-17T15:54:37.764Z,2.28
2018-02-17T15:55:37.757Z,2.34
2018-02-17T15:56:37.783Z,2.13
2018-02-17T15:57:37.784Z,2.37
2018-02-17T15:58:37.739Z,2.27
2018-02-17T15:59:37.709Z,2.23
2018-02-17T16:00:37.738Z,2.35
2018-02-17T16:01:37.692Z,2.45
2018-02-17T16:02:37.677Z,2.41
2018-02-17T16:03:37.689Z,2.41
2018-02-17T16:04:37.659Z,2.37
2018-02-17T16:05:37.644Z,2.28
2018-02-17T16:06:37.641Z,2.40
2018-02-17T16:07:37.633Z,2.28
2018-02-17T16:08:37.645Z,2.30
2018-02-17T16:09:37.612Z,2.27
2018-02-17T16:10:37.620Z,2.20
2018-02-17T16:11:37.595Z,2.28
2018-02-17T16:12:37.579Z,2.33
2018-02-17T16:13:37.570Z,2.31
2018-02-17T16:14:37.575Z,2.31
2018-02-17T16:15:37.545Z,2.28
2018-02-17T16:16:37.542Z,2.28
2018-02-17T16:17:37.523Z,2.41
2018-02-17T16:18:37.511Z,2.40
2018-02-17T16:19:37.508Z,2.31
2018-02-17T16:20:37.496Z,2.23
2018-02-17T16:21:37.488Z,2.28
2018-02-17T16:22:37.476Z,2.30
2018-02-17T16:23:37.496Z,2.38
2018-02-17T16:24:37.492Z,2.35
2018-02-17T16:25:46.123Z,2.40
2018-02-17T16:27:30.864Z,2.38
2018-02-17T16:28:30.857Z,2.44
2018-02-17T16:29:30.838Z,2.45
2018-02-17T16:30:30.946Z,2.38
2018-02-17T16:31:30.787Z,2.44
2018-02-17T16:32:30.777Z,2.37
2018-02-17T16:33:30.761Z,2.52
2018-02-17T16:34:30.767Z,2.46
2018-02-17T16:35:30.751Z,2.44
2018-02-17T16:36:30.780Z,2.46
2018-02-17T16:37:30.729Z,2.56
2018-02-17T16:38:30.735Z,2.49
2018-02-17T16:39:30.705Z,2.41
2018-02-17T16:40:30.698Z,2.46
2018-02-17T16:41:30.690Z,2.38
2018-02-17T16:42:30.701Z,2.40
2018-02-17T16:43:30.670Z,2.44
2018-02-17T16:44:30.701Z,2.40
2018-02-17T16:45:30.675Z,2.41
2018-02-17T16:46:30.668Z,2.37
2018-02-17T16:47:30.632Z,2.55
2018-02-17T16:48:30.610Z,2.38
2018-02-17T16:49:30.627Z,2.40
2018-02-17T16:50:30.609Z,2.35
2018-02-17T16:51:30.579Z,2.41
2018-02-17T16:52:30.571Z,2.40
2018-02-17T16:53:30.592Z,2.41
2018-02-17T16:54:30.546Z,2.48
2018-02-17T16:55:30.545Z,2.48
2018-02-17T16:56:30.531Z,2.48
2018-02-17T16:57:30.520Z,2.40
2018-02-17T16:58:30.507Z,2.49
2018-02-17T16:59:30.497Z,2.44
2018-02-17T17:00:30.513Z,2.44
2018-02-17T17:01:30.487Z,2.48
2018-02-17T17:02:30.485Z,2.40
2018-02-17T17:03:30.457Z,2.44
2018-02-17T17:04:30.454Z,2.44
2018-02-17T17:05:30.464Z,2.41
2018-02-17T17:06:30.446Z,2.41
2018-02-17T17:07:30.476Z,2.46
2018-02-17T17:08:30.404Z,2.46